createdAt,value
2023-03-23T15:58:45.330Z,98794.41
2023-03-23T16:01:18.919Z,98794.41
2023-03-23T16:03:55.280Z,98783.16
2023-03-23T16:06:33.325Z,98789.19
2023-03-23T16:09:11.301Z,98781.84
2023-03-23T16:11:42.498Z,98769.50
2023-03-23T16:14:13.162Z,98758.75
2023-03-23T16:16:50.492Z,98765.59
2023-03-23T16:19:31.468Z,98763.47
2023-03-23T16:22:03.713Z,98749.59
2023-03-23T16:24:35.134Z,98757.94
2023-03-23T16:27:05.938Z,98754.56
2023-03-23T16:32:10.637Z,98744.31
2023-03-23T16:34:40.844Z,98757.94
2023-03-23T16:37:13.674Z,98745.09
2023-03-23T16:39:47.686Z,98751.88
2023-03-23T16:42:17.552Z,98754.50
2023-03-23T16:44:51.010Z,98762.38
2023-03-23T16:47:23.866Z,98759.22
2023-03-23T16:49:54.482Z,98750.56
2023-03-23T16:52:27.501Z,98746.91
2023-03-23T16:54:59.188Z,98751.34
2023-03-23T16:57:32.521Z,98750.28
2023-03-23T17:00:02.711Z,98748.72
2023-03-23T17:02:33.129Z,98760.28
2023-03-23T17:05:14.961Z,98753.19
2023-03-23T17:07:45.099Z,98748.22
2023-03-23T17:10:18.830Z,98750.81
2023-03-23T17:12:49.018Z,98751.88
2023-03-23T17:15:21.379Z,98746.66
2023-03-23T17:17:51.379Z,98749.78
2023-03-23T17:20:23.764Z,98743.75
2023-03-23T17:22:53.916Z,98740.88
2023-03-23T17:25:30.714Z,98748.47
2023-03-23T17:28:05.857Z,98738.25
2023-03-23T17:30:42.798Z,98745.56
2023-03-23T17:33:16.020Z,98748.19
2023-03-23T17:35:52.024Z,98739.00
2023-03-23T17:38:24.970Z,98742.41
2023-03-23T17:41:00.196Z,98741.34
2023-03-23T17:43:33.979Z,98739.00
2023-03-23T17:46:04.027Z,98746.03
2023-03-23T17:48:34.367Z,98754.38
2023-03-23T17:51:04.074Z,98753.63
2023-03-23T17:53:35.690Z,98745.75
2023-03-23T17:56:08.290Z,98750.22
2023-03-23T17:58:40.140Z,98753.63
2023-03-23T18:01:09.406Z,98759.63
2023-03-23T18:03:38.494Z,98759.63
2023-03-23T18:06:10.055Z,98755.19
2023-03-23T18:08:39.850Z,98749.44
2023-03-23T18:11:10.708Z,98748.28
2023-03-23T18:13:40.047Z,98743.09
2023-03-23T18:16:10.639Z,98742.81
2023-03-23T18:18:39.714Z,98747.56
2023-03-23T18:21:10.965Z,98738.13
2023-03-23T18:23:49.321Z,98743.34
2023-03-23T18:26:27.260Z,98755.97
2023-03-23T18:28:56.907Z,98750.72
2023-03-23T18:31:26.079Z,98751.50
2023-03-23T18:33:55.856Z,98754.38
2023-03-23T18:36:27.563Z,98751.75
2023-03-23T18:38:58.485Z,98742.34
2023-03-23T18:41:29.036Z,98738.16
2023-03-23T18:43:58.077Z,98738.44
2023-03-23T18:46:27.285Z,98743.97
2023-03-23T18:48:56.377Z,98733.75
2023-03-23T18:51:26.251Z,98731.13
2023-03-23T18:53:55.392Z,98723.00
2023-03-23T18:56:24.550Z,98731.66
2023-03-23T18:58:55.338Z,98729.06
2023-03-23T19:01:24.464Z,98730.88
2023-03-23T19:03:53.697Z,98726.69
2023-03-23T19:06:25.286Z,98736.41
2023-03-23T19:08:55.036Z,98734.06
2023-03-23T19:11:27.284Z,98737.19
2023-03-23T19:14:02.921Z,98730.38
2023-03-23T19:16:35.779Z,98726.97
2023-03-23T19:19:07.797Z,98728.84
2023-03-23T19:21:39.832Z,98732.47
2023-03-23T19:24:10.730Z,98726.47
2023-03-23T19:26:42.503Z,98725.69
2023-03-23T19:31:48.577Z,98732.00
2023-03-23T19:34:18.022Z,98723.34
2023-03-23T19:36:54.925Z,98721.00
2023-03-23T19:39:25.380Z,98721.00
2023-03-23T19:41:54.419Z,98716.03
2023-03-23T19:44:25.386Z,98716.28
2023-03-23T19:46:55.991Z,98707.94
2023-03-23T19:49:25.490Z,98712.38
2023-03-23T19:52:05.234Z,98707.44
2023-03-23T19:54:38.517Z,98711.09
2023-03-23T19:57:08.857Z,98699.03
2023-03-23T19:59:39.632Z,98700.09
2023-03-23T20:02:10.674Z,98703.78
2023-03-23T20:04:39.955Z,98701.16
2023-03-23T20:07:12.588Z,98710.84
2023-03-23T20:09:41.779Z,98699.63
2023-03-23T20:12:11.019Z,98686.00
2023-03-23T20:14:44.451Z,98699.88
2023-03-23T20:17:16.480Z,98687.06
2023-03-23T20:19:45.587Z,98690.72
2023-03-23T20:22:15.553Z,98691.78
2023-03-23T20:24:48.269Z,98680.03
2023-03-23T20:27:18.750Z,98685.53
2023-03-23T20:29:49.105Z,98679.78
2023-03-23T20:32:18.174Z,98679.78
2023-03-23T20:34:49.266Z,98683.44
2023-03-23T20:37:20.566Z,98683.44
2023-03-23T20:39:49.701Z,98681.91
2023-03-23T20:42:21.460Z,98676.94
2023-03-23T20:44:54.826Z,98664.88
2023-03-23T20:47:23.969Z,98660.69
2023-03-23T20:49:53.899Z,98670.41
2023-03-23T20:52:23.898Z,98656.78
2023-03-23T20:54:53.308Z,98661.03
2023-03-23T20:57:23.621Z,98657.88
2023-03-23T20:59:55.349Z,98647.94
2023-03-23T21:02:25.978Z,98658.41
2023-03-23T21:04:55.189Z,98656.88
2023-03-23T21:07:27.494Z,98653.72
2023-03-23T21:09:56.500Z,98652.97
2023-03-23T21:12:25.849Z,98656.34
2023-03-23T21:14:56.909Z,98645.88
2023-03-23T21:17:25.907Z,98652.69
2023-03-23T21:19:55.548Z,98635.91
2023-03-23T21:22:24.694Z,98630.69
2023-03-23T21:24:53.762Z,98632.22
2023-03-23T21:27:22.751Z,98629.06
2023-03-23T21:29:59.484Z,98628.00
2023-03-23T21:32:29.030Z,98628.53
2023-03-23T21:35:02.400Z,98618.06
2023-03-23T21:37:31.844Z,98622.75
2023-03-23T21:40:00.929Z,98621.69
2023-03-23T21:42:31.122Z,98614.34
2023-03-23T21:45:03.054Z,98616.69
2023-03-23T21:47:32.249Z,98620.59
2023-03-23T21:50:01.987Z,98622.16
2023-03-23T21:52:32.397Z,98624.75
2023-03-23T21:55:02.817Z,98620.03
2023-03-23T21:57:33.632Z,98611.13
2023-03-23T22:00:08.217Z,98604.53
2023-03-23T22:02:37.286Z,98604.53
2023-03-23T22:05:06.846Z,98605.34
2023-03-23T22:07:39.897Z,98604.28
2023-03-23T22:10:14.520Z,98603.25
2023-03-23T22:12:43.705Z,98602.16
2023-03-23T22:15:16.370Z,98599.00
2023-03-23T22:17:45.668Z,98595.31
2023-03-23T22:20:15.515Z,98593.97
2023-03-23T22:22:44.500Z,98589.53
2023-03-23T22:25:16.022Z,98587.44
2023-03-23T22:27:45.879Z,98586.09
2023-03-23T22:30:16.783Z,98567.47
2023-03-23T22:32:45.878Z,98569.03
2023-03-23T22:35:16.400Z,98561.69
2023-03-23T22:37:45.681Z,98557.72
2023-03-23T22:40:14.748Z,98563.75
2023-03-23T22:42:43.730Z,98571.59
2023-03-23T22:45:12.972Z,98561.13
2023-03-23T22:47:43.370Z,98553.75
2023-03-23T22:50:15.503Z,98560.53
2023-03-23T22:52:46.690Z,98562.41
2023-03-23T22:55:15.818Z,98562.41
2023-03-23T22:57:44.870Z,98554.53
2023-03-23T23:00:15.695Z,98555.31
2023-03-23T23:02:46.390Z,98559.50
2023-03-23T23:05:15.728Z,98557.66
2023-03-23T23:07:44.806Z,98557.66
2023-03-23T23:10:13.849Z,98545.34
2023-03-23T23:12:43.367Z,98553.19
2023-03-23T23:15:16.363Z,98560.00
2023-03-23T23:17:46.877Z,98553.19
2023-03-23T23:20:16.970Z,98541.66
2023-03-23T23:22:46.071Z,98540.59
2023-03-23T23:25:15.225Z,98536.13
2023-03-23T23:27:44.200Z,98536.41
2023-03-23T23:30:14.276Z,98524.38
2023-03-23T23:32:44.641Z,98534.56
2023-03-23T23:35:15.245Z,98535.91
2023-03-23T23:37:44.255Z,98529.63
2023-03-23T23:40:15.183Z,98525.16
2023-03-23T23:42:45.023Z,98523.31
2023-03-23T23:45:15.344Z,98522.25
2023-03-23T23:47:45.729Z,98515.94
2023-03-23T23:50:16.928Z,98512.25
2023-03-23T23:52:46.595Z,98512.25
2023-03-23T23:55:17.744Z,98504.41
2023-03-23T23:57:49.663Z,98503.38
